createdAt,value
2022-11-24T00:02:37.957Z,1.27
2022-11-24T00:05:37.893Z,1.29
2022-11-24T00:08:37.890Z,1.33
2022-11-24T00:11:37.917Z,1.16
2022-11-24T00:14:37.886Z,1.26
2022-11-24T00:17:37.912Z,1.06
2022-11-24T00:20:37.860Z,1.17
2022-11-24T00:23:37.908Z,1.07
2022-11-24T00:26:37.855Z,1.06
2022-11-24T00:29:37.912Z,0.86
2022-11-24T00:32:37.879Z,0.79
2022-11-24T00:35:37.909Z,0.92
2022-11-24T00:38:37.897Z,0.79
2022-11-24T00:41:37.926Z,1.16
2022-11-24T00:44:37.906Z,1.14
2022-11-24T00:47:37.917Z,0.78
2022-11-24T00:50:37.916Z,1.19
2022-11-24T00:53:37.937Z,1.42
2022-11-24T00:56:37.877Z,1.4
2022-11-24T00:59:37.933Z,1.44
2022-11-24T01:02:37.954Z,1.89
2022-11-24T01:05:37.917Z,1.77
2022-11-24T01:08:37.932Z,1.43
2022-11-24T01:11:37.923Z,1.36
2022-11-24T01:14:37.916Z,1.31
2022-11-24T01:17:37.923Z,1.59
2022-11-24T01:20:37.939Z,1.56
2022-11-24T01:23:37.936Z,1.28
2022-11-24T01:26:37.945Z,1.07
2022-11-24T01:29:37.938Z,1.52
2022-11-24T01:32:37.940Z,1.18
2022-11-24T01:35:37.947Z,1.14
2022-11-24T01:38:37.987Z,1.2
2022-11-24T01:41:38.001Z,1.09
2022-11-24T01:44:37.936Z,1.14
2022-11-24T01:47:37.972Z,1.41
2022-11-24T01:50:37.939Z,1.09
2022-11-24T01:53:37.972Z,0.85
2022-11-24T01:56:37.939Z,1.06
2022-11-24T01:59:37.996Z,1.12
2022-11-24T02:02:37.999Z,0.65
2022-11-24T02:05:37.982Z,0.96
2022-11-24T02:08:37.972Z,0.61
2022-11-24T02:11:37.994Z,0.64
2022-11-24T02:14:37.988Z,0.69
2022-11-24T02:17:37.999Z,1.15
2022-11-24T02:20:37.975Z,0.99
2022-11-24T02:23:38.016Z,1.03
2022-11-24T02:26:37.981Z,0.93
2022-11-24T02:29:37.991Z,1
2022-11-24T02:32:37.972Z,0.94
2022-11-24T02:35:38.008Z,0.76
2022-11-24T02:38:37.979Z,0.79
2022-11-24T02:41:38.028Z,0.54
2022-11-24T02:44:38.025Z,0.73
2022-11-24T02:47:37.976Z,0.82
2022-11-24T02:50:38.011Z,0.74
2022-11-24T02:53:37.999Z,0.47
2022-11-24T02:56:38.044Z,0.31
2022-11-24T02:59:37.993Z,0.88
2022-11-24T03:02:38.098Z,0.76
2022-11-24T03:05:38.040Z,0.95
2022-11-24T03:08:38.013Z,1.04
2022-11-24T03:11:38.034Z,0.79
2022-11-24T03:14:38.018Z,0.66
2022-11-24T03:17:38.079Z,0.8
2022-11-24T03:20:38.012Z,0.81
2022-11-24T03:23:38.061Z,0.76
2022-11-24T03:26:38.045Z,0.5
2022-11-24T03:29:38.053Z,0.82
2022-11-24T03:32:38.029Z,0.46
2022-11-24T03:35:38.031Z,0.45
2022-11-24T03:38:38.031Z,0.52
2022-11-24T03:41:38.080Z,0.5
2022-11-24T03:44:38.069Z,0.41
2022-11-24T03:47:38.080Z,0.34
2022-11-24T03:50:38.064Z,0.31
2022-11-24T03:53:38.051Z,0.54
2022-11-24T03:56:38.076Z,0.88
2022-11-24T03:59:38.071Z,0.9
2022-11-24T04:02:38.138Z,0.46
2022-11-24T04:05:38.155Z,0.39
2022-11-24T04:08:38.085Z,0.51
2022-11-24T04:11:38.055Z,0.36
2022-11-24T04:14:38.106Z,0.44
2022-11-24T04:17:38.088Z,0.26
2022-11-24T04:20:38.082Z,0.5
2022-11-24T04:23:38.095Z,0.58
2022-11-24T04:26:38.108Z,0.51
2022-11-24T04:29:38.108Z,0.52
2022-11-24T04:32:38.130Z,0.33
2022-11-24T04:35:38.076Z,0.15
2022-11-24T04:39:20.372Z,0.57
2022-11-24T04:41:38.112Z,0.29
2022-11-24T04:44:38.123Z,0.93
2022-11-24T04:47:38.152Z,0.63
2022-11-24T04:50:38.099Z,0.39
2022-11-24T04:53:38.084Z,0.59
2022-11-24T04:56:38.108Z,0.57
2022-11-24T04:59:38.121Z,0.48
2022-11-24T05:02:38.111Z,0.69
2022-11-24T05:05:38.148Z,0.45
2022-11-24T05:08:38.179Z,0.49
2022-11-24T05:11:38.105Z,0.71
2022-11-24T05:14:38.211Z,0.29
2022-11-24T05:17:38.108Z,0.59
2022-11-24T05:20:38.141Z,0.44
2022-11-24T05:23:38.180Z,0.72
2022-11-24T05:26:38.209Z,0.55
2022-11-24T05:29:38.131Z,0.58
2022-11-24T05:32:38.184Z,0.47
2022-11-24T05:35:38.160Z,0.53
2022-11-24T05:38:38.228Z,0.36
2022-11-24T05:41:38.232Z,0.56
2022-11-24T05:44:38.210Z,0.75
2022-11-24T05:47:38.209Z,0.4
2022-11-24T05:50:38.179Z,0.39
2022-11-24T05:53:38.159Z,0.29
2022-11-24T05:56:38.316Z,0.25
2022-11-24T05:59:38.147Z,0.34
2022-11-24T06:02:38.309Z,0.33
2022-11-24T06:05:38.244Z,0.31
2022-11-24T06:08:40.511Z,0.44
2022-11-24T06:11:38.173Z,0.52
2022-11-24T06:14:38.267Z,0.3
2022-11-24T06:17:38.271Z,0.5
2022-11-24T06:20:38.168Z,0.71
2022-11-24T06:23:38.264Z,0.56
2022-11-24T06:26:38.255Z,0.38
2022-11-24T06:29:38.173Z,0.3
2022-11-24T06:32:38.276Z,0.36
2022-11-24T06:35:38.260Z,0.46
2022-11-24T06:38:38.201Z,0.56
2022-11-24T06:41:38.211Z,0.65
2022-11-24T06:44:38.272Z,0.33
2022-11-24T06:47:38.275Z,0.52
2022-11-24T06:50:38.259Z,0.46
2022-11-24T06:53:38.426Z,0.37
2022-11-24T06:56:38.253Z,0.56
2022-11-24T06:59:38.229Z,0.53
2022-11-24T07:02:42.657Z,0.49
2022-11-24T07:05:38.195Z,0.64
2022-11-24T07:08:38.235Z,0.61
2022-11-24T07:11:38.273Z,0.47
2022-11-24T07:14:38.233Z,0.68
2022-11-24T07:17:38.297Z,0.79
2022-11-24T07:20:38.236Z,0.55
2022-11-24T07:23:38.278Z,1.02
2022-11-24T07:26:38.307Z,0.8
2022-11-24T07:29:38.235Z,0.88
2022-11-24T07:32:38.305Z,0.83
2022-11-24T07:35:38.389Z,1.07
2022-11-24T07:38:38.252Z,0.88
2022-11-24T07:41:38.304Z,0.85
2022-11-24T07:44:38.327Z,0.8
2022-11-24T07:47:38.320Z,0.9
2022-11-24T07:50:38.301Z,0.48
2022-11-24T07:53:38.326Z,0.78
2022-11-24T07:56:38.420Z,0.64
2022-11-24T07:59:38.288Z,0.95
2022-11-24T08:02:38.407Z,0.8
2022-11-24T08:05:44.650Z,0.73
2022-11-24T08:08:38.284Z,0.78
2022-11-24T08:11:38.291Z,0.65
2022-11-24T08:14:38.293Z,0.77
2022-11-24T08:17:38.345Z,1.02
2022-11-24T08:20:38.272Z,0.73
2022-11-24T08:23:38.361Z,0.53
2022-11-24T08:26:38.265Z,0.62
2022-11-24T08:29:38.371Z,0.61
2022-11-24T08:32:38.365Z,0.35
2022-11-24T08:35:38.363Z,0.74
2022-11-24T08:38:38.374Z,0.42
2022-11-24T08:41:38.298Z,0.38
2022-11-24T08:44:38.386Z,0.41
2022-11-24T08:47:38.368Z,0.55
2022-11-24T08:50:38.340Z,0.95
2022-11-24T08:53:38.393Z,1.31
2022-11-24T08:56:38.370Z,1.27
2022-11-24T08:59:38.323Z,1.02
2022-11-24T09:02:38.365Z,0.93
2022-11-24T09:05:53.673Z,1
2022-11-24T09:08:38.316Z,0.61
2022-11-24T09:11:38.414Z,0.95
2022-11-24T09:14:38.401Z,1.09
2022-11-24T09:17:38.360Z,0.73
2022-11-24T09:20:38.411Z,0.91
2022-11-24T09:23:38.339Z,1.02
2022-11-24T09:26:39.766Z,1.05
2022-11-24T09:29:38.384Z,0.99
2022-11-24T09:32:38.360Z,1.3
2022-11-24T09:35:38.393Z,1.43
2022-11-24T09:38:38.427Z,1.45
2022-11-24T09:41:38.436Z,2.02
2022-11-24T09:44:38.473Z,1.43
2022-11-24T09:47:38.437Z,0.84
2022-11-24T09:50:38.441Z,0.93
2022-11-24T09:53:38.392Z,1.16
2022-11-24T09:56:38.383Z,0.71
2022-11-24T09:59:38.416Z,0.8
2022-11-24T10:02:38.447Z,1.61
2022-11-24T10:05:38.352Z,1.19
2022-11-24T10:08:38.397Z,1.25
2022-11-24T10:11:38.385Z,1.34
2022-11-24T10:14:38.440Z,1.33
2022-11-24T10:17:38.437Z,1.12
2022-11-24T10:20:38.359Z,1.41
2022-11-24T10:23:39.872Z,0.99
2022-11-24T10:26:38.488Z,1.69
2022-11-24T10:29:38.404Z,1.72
2022-11-24T10:32:38.485Z,1.09
2022-11-24T10:35:38.403Z,1.3
2022-11-24T10:38:38.423Z,1.56
2022-11-24T10:41:38.392Z,1.09
2022-11-24T10:44:38.424Z,1.13
2022-11-24T10:47:38.427Z,1.59
2022-11-24T10:50:38.504Z,1.53
2022-11-24T10:53:38.448Z,1.25
2022-11-24T10:56:38.427Z,1.08
2022-11-24T10:59:38.862Z,1.04
2022-11-24T11:02:38.479Z,1.22
2022-11-24T11:05:38.427Z,1.03
2022-11-24T11:08:38.460Z,0.93
2022-11-24T11:11:38.448Z,0.89
2022-11-24T11:14:38.443Z,1.24
2022-11-24T11:17:38.550Z,1.2
2022-11-24T11:20:38.404Z,1.15
2022-11-24T11:23:38.513Z,1.1
2022-11-24T11:26:38.510Z,1.22
2022-11-24T11:35:38.456Z,0.93
2022-11-24T11:38:38.555Z,0.81
2022-11-24T11:41:38.536Z,0.64
2022-11-24T11:44:38.582Z,1.24
2022-11-24T11:47:38.476Z,1.51
2022-11-24T11:50:52.962Z,1.25
2022-11-24T11:53:38.527Z,1.5
2022-11-24T11:56:38.476Z,1.23
2022-11-24T11:59:38.568Z,1.35
2022-11-24T12:02:38.615Z,1.14
2022-11-24T12:05:38.457Z,1.11
2022-11-24T12:08:56.239Z,1.21
2022-11-24T12:11:38.539Z,1.17
2022-11-24T12:14:39.388Z,0.89
2022-11-24T12:17:38.540Z,0.71
2022-11-24T12:20:38.464Z,1.18
2022-11-24T12:23:38.491Z,1.07
2022-11-24T12:26:38.560Z,0.72
2022-11-24T12:29:38.573Z,1.34
2022-11-24T12:32:38.570Z,1.18
2022-11-24T12:35:38.475Z,1.08
2022-11-24T12:38:38.585Z,1.47
2022-11-24T12:41:42.577Z,1.06
2022-11-24T12:44:38.561Z,1.08
2022-11-24T12:47:38.593Z,1.2
2022-11-24T12:50:38.540Z,1.6
2022-11-24T12:53:38.592Z,1.56
2022-11-24T12:56:38.535Z,1.46
2022-11-24T12:59:38.500Z,1.54
2022-11-24T13:02:38.626Z,1.54
2022-11-24T13:05:38.519Z,1.06
2022-11-24T13:08:38.560Z,1.02
2022-11-24T13:11:38.553Z,1.56
2022-11-24T13:14:38.618Z,1.29
2022-11-24T13:17:58.313Z,1.06
2022-11-24T13:20:38.623Z,0.89
2022-11-24T13:23:38.513Z,1
2022-11-24T13:26:41.439Z,1.51
2022-11-24T13:29:38.568Z,0.94
2022-11-24T13:32:38.551Z,1.01
2022-11-24T13:35:38.665Z,0.85
2022-11-24T13:38:38.625Z,1.08
2022-11-24T13:41:38.541Z,0.71
2022-11-24T13:44:38.569Z,0.9
2022-11-24T13:47:38.620Z,0.81
2022-11-24T13:50:38.637Z,0.71
2022-11-24T13:53:38.561Z,0.8
2022-11-24T13:56:38.567Z,0.91
2022-11-24T13:59:38.543Z,0.75
2022-11-24T14:02:38.673Z,0.42
2022-11-24T14:05:38.629Z,0.21
2022-11-24T14:08:38.642Z,0.51
2022-11-24T14:11:38.682Z,0.56
2022-11-24T14:14:38.810Z,0.67
2022-11-24T14:17:38.675Z,0.57
2022-11-24T14:20:38.652Z,0.62
2022-11-24T14:23:38.606Z,0.76
2022-11-24T14:26:38.658Z,0.41
2022-11-24T14:29:38.607Z,0.3
2022-11-24T14:32:38.680Z,0.28
2022-11-24T14:35:38.657Z,0.48
2022-11-24T14:38:38.605Z,0.47
2022-11-24T14:41:38.661Z,0.45
2022-11-24T14:44:38.658Z,0.78
2022-11-24T14:47:38.692Z,0.29
2022-11-24T14:50:38.652Z,0.47
2022-11-24T14:53:38.631Z,0.59
2022-11-24T14:56:38.701Z,0.37
2022-11-24T14:59:38.677Z,0.31
2022-11-24T15:02:38.682Z,0.35
2022-11-24T15:05:38.607Z,0.46
2022-11-24T15:08:38.729Z,0.57
2022-11-24T15:11:38.679Z,0.42
2022-11-24T15:14:38.700Z,0.54
2022-11-24T15:17:38.672Z,0.74
2022-11-24T15:20:38.752Z,0.41
2022-11-24T15:23:38.720Z,0.39
2022-11-24T15:26:42.097Z,0.36
2022-11-24T15:29:38.643Z,0.35
2022-11-24T15:32:38.725Z,0.18
2022-11-24T15:35:38.640Z,0.11
2022-11-24T15:38:38.696Z,0.4
2022-11-24T15:41:38.728Z,0.12
2022-11-24T15:44:38.676Z,0.1
2022-11-24T15:47:38.716Z,0.16
2022-11-24T15:50:38.720Z,0.3
2022-11-24T15:53:38.679Z,0.27
2022-11-24T15:56:38.780Z,0.45
2022-11-24T15:59:38.683Z,0.59
2022-11-24T16:02:41.769Z,0.39
2022-11-24T16:05:38.665Z,0.42
2022-11-24T16:08:38.705Z,0.47
2022-11-24T16:11:38.769Z,0.24
2022-11-24T16:14:38.905Z,0.46
2022-11-24T16:17:38.720Z,0.64
2022-11-24T16:20:38.783Z,0.81
2022-11-24T16:23:38.740Z,0.44
2022-11-24T16:26:38.746Z,0.55
2022-11-24T16:29:38.808Z,0.49
2022-11-24T16:32:38.745Z,0.59
2022-11-24T16:35:38.781Z,0.49
2022-11-24T16:38:38.743Z,0.59
2022-11-24T16:41:38.760Z,0.43
2022-11-24T16:44:38.784Z,0.4
2022-11-24T16:47:38.790Z,0.44
2022-11-24T16:50:38.893Z,0.61
2022-11-24T16:53:38.710Z,0.59
2022-11-24T16:56:38.753Z,0.65
2022-11-24T16:59:38.798Z,0.6
2022-11-24T17:02:38.838Z,0.63
2022-11-24T17:05:38.751Z,0.52
2022-11-24T17:08:38.809Z,0.42
2022-11-24T17:11:38.790Z,0.53
2022-11-24T17:14:38.744Z,0.57
2022-11-24T17:17:49.983Z,0.56
2022-11-24T17:20:38.808Z,0.55
2022-11-24T17:23:38.781Z,0.54
2022-11-24T17:26:38.805Z,0.51
2022-11-24T17:29:38.881Z,0.52
2022-11-24T17:32:38.849Z,0.67
2022-11-24T17:35:38.763Z,0.32
2022-11-24T17:38:38.842Z,0.8
2022-11-24T17:41:38.850Z,0.6
2022-11-24T17:44:38.904Z,0.41
2022-11-24T17:47:38.752Z,0.7
2022-11-24T17:50:38.876Z,0.81
2022-11-24T17:53:38.799Z,0.76
2022-11-24T17:56:38.785Z,0.67
2022-11-24T17:59:38.756Z,0.61
2022-11-24T18:02:38.920Z,0.51
2022-11-24T18:05:38.857Z,0.56
2022-11-24T18:08:38.806Z,0.57
2022-11-24T18:11:38.947Z,0.57
2022-11-24T18:14:38.951Z,0.61
2022-11-24T18:17:38.782Z,0.7
2022-11-24T18:20:38.869Z,0.5
2022-11-24T18:23:38.885Z,0.6
2022-11-24T18:26:38.858Z,0.6
2022-11-24T18:29:38.881Z,0.67
2022-11-24T18:32:38.861Z,0.61
2022-11-24T18:35:38.807Z,0.59
2022-11-24T18:38:38.901Z,0.53
2022-11-24T18:41:38.842Z,0.51
2022-11-24T18:44:38.848Z,0.64
2022-11-24T18:47:38.905Z,0.64
2022-11-24T18:50:38.896Z,0.7
2022-11-24T18:53:38.875Z,0.75
2022-11-24T18:56:38.860Z,0.68
2022-11-24T18:59:38.924Z,0.69
2022-11-24T19:02:38.963Z,0.64
2022-11-24T19:05:38.856Z,0.57
2022-11-24T19:08:38.914Z,0.62
2022-11-24T19:11:38.869Z,0.47
2022-11-24T19:14:38.890Z,0.68
2022-11-24T19:17:38.888Z,0.54
2022-11-24T19:20:38.941Z,0.51
2022-11-24T19:23:38.850Z,0.46
2022-11-24T19:26:38.937Z,0.6
2022-11-24T19:29:42.896Z,0.48
2022-11-24T19:32:38.840Z,0.38
2022-11-24T19:35:38.937Z,0.4
2022-11-24T19:38:38.940Z,0.43
2022-11-24T19:41:38.879Z,0.76
2022-11-24T19:44:38.991Z,0.63
2022-11-24T19:47:38.925Z,0.39
2022-11-24T19:50:39.017Z,0.32
2022-11-24T19:53:38.893Z,0.29
2022-11-24T19:56:38.895Z,0.31
2022-11-24T19:59:38.869Z,0.45
2022-11-24T20:02:39.052Z,0.37
2022-11-24T20:05:38.907Z,0.52
2022-11-24T20:08:38.920Z,0.5
2022-11-24T20:11:38.956Z,0.36
2022-11-24T20:14:38.928Z,0.37
2022-11-24T20:17:38.908Z,0.61
2022-11-24T20:20:38.866Z,0.67
2022-11-24T20:23:38.906Z,0.67
2022-11-24T20:26:38.960Z,0.54
2022-11-24T20:29:42.470Z,0.62
2022-11-24T20:32:38.982Z,0.7
2022-11-24T20:35:38.909Z,0.86
2022-11-24T20:38:38.960Z,0.77
2022-11-24T20:41:38.995Z,0.75
2022-11-24T20:44:38.985Z,0.8
2022-11-24T20:47:38.915Z,0.76
2022-11-24T20:50:38.922Z,0.66
2022-11-24T20:53:38.957Z,0.84
2022-11-24T20:56:38.935Z,0.85
2022-11-24T20:59:44.300Z,0.91
2022-11-24T21:02:39.025Z,0.91
2022-11-24T21:05:39.000Z,0.88
2022-11-24T21:08:38.952Z,0.78
2022-11-24T21:11:38.948Z,0.68
2022-11-24T21:14:39.143Z,0.68
2022-11-24T21:17:39.000Z,0.56
2022-11-24T21:20:38.963Z,0.45
2022-11-24T21:23:39.010Z,0.3
2022-11-24T21:26:38.942Z,0.11
2022-11-24T21:29:39.045Z,0.16
2022-11-24T21:32:38.987Z,0
2022-11-24T21:35:38.989Z,0.11
2022-11-24T21:38:39.025Z,0.19
2022-11-24T21:41:38.971Z,0.04
2022-11-24T21:44:38.948Z,0.01
2022-11-24T21:47:39.049Z,0.21
2022-11-24T21:50:39.029Z,0.01
2022-11-24T21:53:39.034Z,0
2022-11-24T21:56:39.019Z,0
2022-11-24T21:59:39.055Z,0
2022-11-24T22:02:39.102Z,0.07
2022-11-24T22:05:38.972Z,0.13
2022-11-24T22:08:39.064Z,0.39
2022-11-24T22:11:38.972Z,0.49
2022-11-24T22:14:40.450Z,0.31
2022-11-24T22:17:39.069Z,0.2
2022-11-24T22:20:39.061Z,0.09
2022-11-24T22:23:39.014Z,0
2022-11-24T22:26:39.007Z,0.01
2022-11-24T22:29:39.083Z,0
2022-11-24T22:32:39.009Z,0.24
2022-11-24T22:35:39.020Z,0.08
2022-11-24T22:38:39.020Z,0.68
2022-11-24T22:41:39.096Z,0.99
2022-11-24T22:44:38.991Z,0.75
2022-11-24T22:47:39.026Z,0.82
2022-11-24T22:50:39.014Z,0.73
2022-11-24T22:53:39.040Z,0.78
2022-11-24T22:56:39.073Z,0.64
2022-11-24T22:59:39.111Z,0.41
2022-11-24T23:02:39.073Z,0.43
2022-11-24T23:05:39.040Z,0.29
2022-11-24T23:08:39.051Z,0.27
2022-11-24T23:11:39.097Z,0.04
2022-11-24T23:14:39.102Z,0
2022-11-24T23:17:39.133Z,0.13
2022-11-24T23:20:39.036Z,0.29
2022-11-24T23:23:39.058Z,0.31
2022-11-24T23:26:39.028Z,0.19
2022-11-24T23:29:39.056Z,0.26
2022-11-24T23:32:39.048Z,0.41
2022-11-24T23:35:39.123Z,0.53
2022-11-24T23:38:39.055Z,0.49
2022-11-24T23:41:39.093Z,0.54
2022-11-24T23:44:39.144Z,0.49
2022-11-24T23:47:39.144Z,0.57
2022-11-24T23:50:39.087Z,0.52
2022-11-24T23:53:39.131Z,0.46
2022-11-24T23:56:39.129Z,0.58
2022-11-24T23:59:39.160Z,0.44
